Details From OMDB - DUBAI INTL
To OBBI - BAHRAIN INTL
Flight Number -
Tags generated
Created
Modified
Stats Distance 264 nm / 488 km
Max Altitude 28,000 ft / 8,534 m
Waypoints 5
Social Downloads 2
Likes 0
Share

Download

Looking for another format? Having issues loading an existing format? Contact us
Advertisement - Login to hide

Notes

Basic altitude profile: - Ascent Rate: 2500ft/min - Ascent Speed: 250kts - Cruise Altitude: 35000ft - Cruise Speed: 420kts - Descent Rate: 1500ft/min - Descent Speed: 250kts Options: - Use NATs: yes - Use PACOTS: yes - Use low airways: yes - Use high airways: yes

Route

OMDB DUVGA N571 BALUS G462 KASET OBBI

ID Type Via Altitude (ft/m) Position (lat/lon) Dist (leg/tot) Name
O OMDB APT - 0 / 0 25.25491 / 55.36426 - / 0 nm DUBAI INTL
DUVGA FIX - 24,800 / 7,559 25.50583 / 54.05833 72 / 72 nm
BALUS FIX N571 (AWY-HI) 28,000 / 8,534 25.76500 / 53.07333 55 / 128 nm
KASET FIX G462 (AWY-HI) 22,600 / 6,888 25.96889 / 52.56694 29 / 157 nm
O OBBI APT - 0 / 0 26.26784 / 50.63710 105 / 263 nm BAHRAIN INTL

Altitude Profile

Advertisement - Login to hide

Weather


0- 5 10 15 20 25 30 35+ Temperature / °C

Clouds and Precipitation
Forecast for 2021-03-22 12:00 UTC. Updated 2 months ago

Ground ~20,000 ft ~40,000 ft Winds

OMDB

Details ICAO OMDB (DXB)
Name Dubai Intl
Region United Arab Emirates
Timezone Asia/Dubai (UTC+4.0)
Stats Elevation 62 ft / 19 m (AMSL)
Location 25.251100° 55.371100°
Runways 2
Magnetic Variation 2.208° E

METAR

OMDB 090000Z VRB02KT CAVOK 28/17 Q1006 NOSIG

Decode

TAF

TAF OMDB 082300Z 0900/1006 19007KT CAVOK BECMG 0906/0908 28015KT BECMG 0916/0918 22005KT BECMG 1005/1006 28012KT

Decode

Departure Runways

ID Width Length Bearing (true/mag) Surface Threshold Overrun Markings Lighting
12L 200 ft / 61 m 14,289 ft / 4,355 m 121.48° / 119.28° ASPHALT 1,496 ft / 456 m 381 ft / 116 m PREC-APP CENTERLINE EDGE THRESHOLD ALSF-II TDZ REIL-OMNI
12R 200 ft / 61 m 14,604 ft / 4,452 m 121.53° / 119.32° ASPHALT 2,352 ft / 717 m 771 ft / 235 m PREC-APP CENTERLINE EDGE THRESHOLD ALSF-II TDZ REIL-OMNI
30L 200 ft / 61 m 14,604 ft / 4,452 m 301.54° / 299.33° ASPHALT 436 ft / 133 m 0 ft / 0 m PREC-APP CENTERLINE EDGE THRESHOLD ALSF-II TDZ REIL-OMNI
30R 200 ft / 61 m 14,289 ft / 4,355 m 301.50° / 299.29° ASPHALT 991 ft / 302 m 377 ft / 115 m PREC-APP CENTERLINE EDGE THRESHOLD ALSF-II TDZ REIL-OMNI

OBBI

Details ICAO OBBI (BAH)
Name Bahrain Intl
Region Bahrain
Timezone Asia/Bahrain (UTC+3.0)
Stats Elevation 8 ft / 2 m (AMSL)
Location 26.267900° 50.636900°
Runways 2
Magnetic Variation 2.923° E

METAR

OBBI 090030Z VRB01KT CAVOK 28/20 Q1006 NOSIG

Decode

TAF

TAF OBBI 082300Z 0900/1006 35008KT CAVOK BECMG 0920/0922= TAF OKBK 082245Z 0900/1006 32010KT 7000 NSC

Decode

Destination Runways

ID Width Length Bearing (true/mag) Surface Threshold Overrun Markings Lighting
12L 197 ft / 60 m 12,994 ft / 3,961 m 122.77° / 119.84° ASPHALT 1,001 ft / 305 m 207 ft / 63 m PREC-APP CENTERLINE EDGE THRESHOLD ALSF-I TDZ REIL-OMNI
12R 148 ft / 45 m 8,300 ft / 2,530 m 122.73° / 119.81° ASPHALT 1,007 ft / 307 m 0 ft / 0 m APP EDGE THRESHOLD REIL-OMNI
30L 148 ft / 45 m 8,300 ft / 2,530 m 302.74° / 299.82° ASPHALT 397 ft / 121 m 0 ft / 0 m PREC-APP EDGE THRESHOLD REIL-OMNI
30R 197 ft / 60 m 12,994 ft / 3,961 m 302.78° / 299.86° ASPHALT 997 ft / 304 m 203 ft / 62 m PREC-APP CENTERLINE EDGE THRESHOLD ALSF-I TDZ REIL-OMNI

Approach Navaids

Runway Type Ident Frequency Range Bearing (true/mag) Slope Elevation
12L DME IBIB 111.50 MHz 18 nm / 33 km - - 42 ft / 13 m (AMSL)
12L LOC-ILS IBIB 111.50 MHz 18 nm / 33 km 122.78° / 119.86 ° - 8 ft / 2 m (AMSL)
12L GS IBIB 111.50 MHz 10 nm / 19 km 122.78° / 119.86 ° 3.00° 8 ft / 2 m (AMSL)
30R GS IBIA 110.30 MHz 10 nm / 19 km 302.78° / 299.86 ° 3.00° 8 ft / 2 m (AMSL)
30R LOC-ILS IBIA 110.30 MHz 18 nm / 33 km 302.78° / 299.86 ° - 8 ft / 2 m (AMSL)
30R MM MM - - 302.75° / 299.82 ° - 6 ft / 2 m (AMSL)
30R DME IBIA 110.30 MHz 18 nm / 33 km - - 42 ft / 13 m (AMSL)

Popular Alternatives